Time;durP1;ratioP1;P1;durP2;ratioP2;P2;SDS_P1;SDS_P2;PMS_P1;PMS_P2;Temp;Humidity;BMP_temperature;BMP_pressure;BME280_temperature;BME280_humidity;BME280_pressure;Samples;Min_cycle;Max_cycle;Signal;HPM_P1;HPM_P2
2022/12/01 00:02:07;;;;;;;26.15;14.00;;;;;;;2.88;94.53;101104.19;5084367;28;20032;-69
2022/12/01 00:04:33;;;;;;;28.80;15.15;;;;;;;2.89;94.67;101109.41;5084094;28;20028;-69
2022/12/01 00:06:58;;;;;;;27.60;14.07;;;;;;;2.79;93.83;101080.72;5087344;28;20085;-70
2022/12/01 00:12:08;;;;;;;23.42;13.63;;;;;;;2.74;93.69;101072.97;5085984;28;20089;-69
2022/12/01 00:14:33;;;;;;;23.65;13.50;;;;;;;2.73;93.48;101065.09;5083583;28;20040;-69
2022/12/01 00:16:58;;;;;;;27.65;15.77;;;;;;;2.86;93.18;101087.47;5090655;28;20456;-69
2022/12/01 00:19:27;;;;;;;24.25;14.00;;;;;;;2.74;93.15;101070.34;5082412;28;20020;-69
2022/12/01 00:21:53;;;;;;;26.67;15.10;;;;;;;2.73;93.26;101065.97;5090784;28;20028;-69
2022/12/01 00:24:18;;;;;;;26.70;14.18;;;;;;;2.59;93.39;101052.50;5090890;28;20085;-68
2022/12/01 00:26:44;;;;;;;27.30;14.90;;;;;;;2.79;93.03;101086.03;5089539;28;20227;-68
2022/12/01 00:29:09;;;;;;;26.85;14.25;;;;;;;2.68;93.41;101069.75;5089100;28;20597;-75
2022/12/01 00:31:35;;;;;;;24.92;14.23;;;;;;;2.75;93.11;101103.84;5092895;28;20400;-75
2022/12/01 00:34:01;;;;;;;25.52;14.57;;;;;;;2.67;93.53;101094.53;5093093;28;20036;-75
2022/12/01 00:36:26;;;;;;;29.50;14.68;;;;;;;2.50;93.34;101075.84;5092722;28;20055;-75
2022/12/01 00:38:55;;;;;;;23.58;13.90;;;;;;;2.53;93.53;101096.88;5092966;28;20067;-76
2022/12/01 00:41:22;;;;;;;28.38;14.80;;;;;;;2.48;93.22;101102.38;5091420;28;20412;-76
2022/12/01 00:43:48;;;;;;;27.33;15.32;;;;;;;2.31;93.90;101089.88;5091622;28;20024;-76
2022/12/01 00:46:13;;;;;;;26.40;15.38;;;;;;;2.27;93.89;101098.88;5092443;28;20051;-75
2022/12/01 00:48:39;;;;;;;25.70;14.27;;;;;;;2.29;94.55;101107.59;5091411;28;20028;-75
2022/12/01 00:51:04;;;;;;;27.95;15.60;;;;;;;2.27;95.39;101105.94;5092598;28;20048;-75
2022/12/01 00:53:30;;;;;;;27.70;14.90;;;;;;;2.12;95.39;101090.69;5092754;28;20075;-75
2022/12/01 00:55:56;;;;;;;27.80;14.85;;;;;;;2.19;95.94;101111.53;5091226;28;20024;-76
2022/12/01 00:58:22;;;;;;;27.55;15.38;;;;;;;2.17;96.52;101105.44;5090779;28;20108;-76
2022/12/01 01:00:48;;;;;;;25.63;15.05;;;;;;;2.14;96.42;101097.66;5092057;28;20059;-76
2022/12/01 01:03:13;;;;;;;27.88;15.50;;;;;;;2.05;96.63;101089.22;5091858;28;20024;-75
2022/12/01 01:05:41;;;;;;;25.33;14.73;;;;;;;1.95;96.44;101077.28;5092417;28;20027;-74
2022/12/01 01:08:07;;;;;;;27.38;14.82;;;;;;;2.06;96.67;101099.72;5094329;28;20038;-75
2022/12/01 01:10:37;;;;;;;26.95;14.68;;;;;;;2.01;96.90;101100.84;5092688;28;20028;-76
2022/12/01 01:13:02;;;;;;;27.33;14.63;;;;;;;1.92;96.99;101090.63;5090470;28;20028;-69
2022/12/01 01:15:28;;;;;;;26.98;14.90;;;;;;;1.75;96.77;101071.94;5089975;28;20023;-69
2022/12/01 01:17:53;;;;;;;29.15;15.43;;;;;;;1.83;96.81;101098.94;5090058;28;20034;-69
2022/12/01 01:20:19;;;;;;;29.73;15.57;;;;;;;1.77;97.16;101093.88;5088606;28;20032;-68
2022/12/01 01:22:44;;;;;;;31.95;16.25;;;;;;;1.73;97.38;101085.22;5090401;28;20028;-68
2022/12/01 01:25:09;;;;;;;32.70;16.20;;;;;;;1.70;98.23;101085.34;5090209;28;20549;-71
2022/12/01 01:27:35;;;;;;;31.52;15.40;;;;;;;1.71;98.65;101091.50;5091068;28;20024;-69
2022/12/01 01:30:00;;;;;;;30.75;15.50;;;;;;;1.64;98.40;101084.72;5090279;28;20187;-69
2022/12/01 01:32:26;;;;;;;32.83;15.98;;;;;;;1.69;98.84;101093.34;5089715;28;20051;-70
2022/12/01 01:34:51;;;;;;;30.58;16.08;;;;;;;1.62;98.77;101081.28;5092218;28;20028;-68
2022/12/01 01:37:17;;;;;;;26.98;14.30;;;;;;;1.58;98.75;101069.97;5089934;28;20040;-69
2022/12/01 01:39:42;;;;;;;34.13;16.35;;;;;;;1.69;98.58;101093.34;5089809;28;20051;-69
2022/12/01 01:42:12;;;;;;;28.23;14.80;;;;;;;1.65;98.92;101087.28;5089720;28;20036;-69
2022/12/01 01:44:47;;;;;;;27.13;14.63;;;;;;;1.74;99.05;101099.31;5088375;28;20031;-69
2022/12/01 01:47:16;;;;;;;26.77;14.88;;;;;;;1.61;99.02;101074.28;5089676;28;20035;-70
2022/12/01 01:49:42;;;;;;;26.83;14.68;;;;;;;1.78;99.18;101107.03;5089782;28;20584;-69
2022/12/01 01:52:08;;;;;;;27.65;14.52;;;;;;;1.72;98.45;101094.09;5089497;28;20113;-69
2022/12/01 01:54:43;;;;;;;24.25;15.00;;;;;;;1.80;98.11;101110.50;5089732;28;20527;-69
2022/12/01 01:57:13;;;;;;;25.83;14.27;;;;;;;1.58;98.15;101069.97;5089593;28;20035;-69
2022/12/01 01:59:44;;;;;;;25.95;13.48;;;;;;;1.58;98.51;101062.03;5088105;28;20144;-69
2022/12/01 02:02:11;;;;;;;24.42;13.95;;;;;;;1.78;98.55;101098.28;5089544;28;20511;-69
2022/12/01 02:04:40;;;;;;;30.50;16.30;;;;;;;1.67;98.31;101079.31;5091413;28;20376;-75
2022/12/01 02:07:07;;;;;;;28.25;14.75;;;;;;;1.62;98.17;101071.53;5124320;27;20020;-75
2022/12/01 02:09:34;;;;;;;26.95;14.88;;;;;;;1.65;98.39;101075.88;5091494;28;20062;-76
2022/12/01 02:12:23;;;;;;;28.15;15.55;;;;;;;1.71;98.25;101075.63;5091031;28;20036;-76
2022/12/01 02:15:26;;;;;;;26.73;13.98;;;;;;;1.65;97.61;101068.78;5087425;28;20030;-76
2022/12/01 02:18:01;;;;;;;26.10;13.60;;;;;;;1.61;97.57;101067.19;5087579;28;20053;-76
2022/12/01 02:20:48;;;;;;;24.63;14.65;;;;;;;1.56;97.68;101061.25;5090887;28;20547;-75
2022/12/01 02:23:50;;;;;;;32.25;15.35;;;;;;;1.52;97.86;101059.63;5088968;28;20547;-75
2022/12/01 02:26:16;;;;;;;25.95;14.38;;;;;;;1.51;98.25;101064.97;5090025;28;20032;-75
2022/12/01 02:29:05;;;;;;;25.85;15.35;;;;;;;1.51;98.27;101055.25;5090867;28;20035;-75
2022/12/01 02:31:41;;;;;;;30.30;15.07;;;;;;;1.50;98.37;101055.31;5086842;28;20026;-75
2022/12/01 02:34:20;;;;;;;30.83;15.45;;;;;;;1.49;98.48;101057.09;5088583;28;20056;-75
2022/12/01 02:36:53;;;;;;;26.75;15.05;;;;;;;1.52;98.91;101054.34;5088667;28;20028;-75
2022/12/01 02:39:30;;;;;;;30.53;14.80;;;;;;;1.54;98.81;101054.28;5091562;28;20032;-75
2022/12/01 02:42:48;;;;;;;29.40;14.65;;;;;;;1.35;98.83;101018.94;5090625;28;20024;-75
2022/12/01 02:45:13;;;;;;;30.25;15.05;;;;;;;1.53;98.67;101053.44;5088073;28;20106;-75
2022/12/01 02:47:40;;;;;;;28.80;15.93;;;;;;;1.53;98.73;101053.44;5091196;28;20035;-76
2022/12/01 02:50:09;;;;;;;28.60;15.18;;;;;;;1.42;98.74;101033.63;5090750;28;20076;-76
2022/12/01 02:52:34;;;;;;;30.70;16.30;;;;;;;1.44;98.89;101031.78;5090807;28;20027;-74
2022/12/01 02:55:00;;;;;;;29.02;14.98;;;;;;;1.49;99.17;101043.03;5089210;28;20040;-69
2022/12/01 02:57:28;;;;;;;28.25;14.45;;;;;;;1.54;98.66;101056.91;5088382;28;20078;-69
2022/12/01 02:59:54;;;;;;;30.08;15.15;;;;;;;1.41;98.88;101037.19;5088447;28;20490;-69
2022/12/01 03:02:41;;;;;;;30.35;15.38;;;;;;;1.31;98.77;101028.75;5088828;28;20028;-69
2022/12/01 03:05:30;;;;;;;29.40;16.08;;;;;;;1.48;98.33;101051.91;5089667;28;20035;-69
2022/12/01 03:08:18;;;;;;;28.27;15.20;;;;;;;1.45;98.01;101066.06;5088869;28;20024;-69
2022/12/01 03:10:52;;;;;;;31.67;15.88;;;;;;;1.45;98.34;101076.63;5087579;28;20035;-69
2022/12/01 03:13:43;;;;;;;29.02;14.40;;;;;;;1.43;99.01;101070.56;5087405;28;20513;-68
2022/12/01 03:16:44;;;;;;;31.23;15.70;;;;;;;1.41;99.20;101059.19;5089544;28;20049;-75
2022/12/01 03:19:20;;;;;;;28.23;15.10;;;;;;;1.29;99.33;101048.25;5066245;28;20391;-74
2022/12/01 03:22:03;;;;;;;29.08;15.25;;;;;;;1.34;99.00;101068.28;5088744;28;20027;-75
2022/12/01 03:24:31;;;;;;;24.38;14.50;;;;;;;1.23;99.48;101059.88;5102734;28;20038;-76
2022/12/01 03:27:00;;;;;;;27.63;14.93;;;;;;;1.37;99.35;101069.94;5089213;28;20024;-74
2022/12/01 03:29:42;;;;;;;32.38;16.27;;;;;;;1.28;99.46;101063.22;5090312;28;20028;-75
2022/12/01 03:32:13;;;;;;;31.75;16.48;;;;;;;1.38;99.24;101074.28;5090564;28;20026;-75
2022/12/01 03:34:57;;;;;;;28.23;15.32;;;;;;;1.38;99.14;101080.44;5087035;28;20106;-74
2022/12/01 03:37:31;;;;;;;31.15;15.65;;;;;;;1.33;99.37;101074.50;5088300;28;20027;-75
2022/12/01 03:39:57;;;;;;;29.13;15.68;;;;;;;1.32;99.29;101077.19;5090560;28;20046;-75
2022/12/01 03:42:27;;;;;;;32.42;15.23;;;;;;;1.21;99.32;101064.38;5090480;28;20115;-76
2022/12/01 03:44:56;;;;;;;25.55;14.50;;;;;;;1.32;99.01;101088.59;5088094;28;20496;-76
2022/12/01 03:47:26;;;;;;;29.88;15.55;;;;;;;1.32;99.86;101091.25;5105867;28;20051;-75
2022/12/01 03:49:53;;;;;;;28.75;15.15;;;;;;;1.20;99.73;101067.94;5090423;28;20024;-75
2022/12/01 03:52:44;;;;;;;27.75;15.48;;;;;;;1.33;99.91;101094.75;5092535;28;20479;-76
2022/12/01 03:55:19;;;;;;;30.20;15.38;;;;;;;1.33;99.92;101095.63;5069125;28;20071;-75
2022/12/01 03:57:52;;;;;;;25.55;14.70;;;;;;;1.34;99.46;101097.34;5092456;28;20030;-74
2022/12/01 04:00:18;;;;;;;32.38;15.02;;;;;;;1.29;99.21;101091.34;5093607;28;20032;-75
2022/12/01 04:02:44;;;;;;;28.45;15.30;;;;;;;1.38;99.02;101108.63;5092327;28;20050;-74
2022/12/01 04:05:10;;;;;;;28.33;15.40;;;;;;;1.31;98.77;101105.38;5093802;28;20107;-75
2022/12/01 04:07:37;;;;;;;26.88;14.77;;;;;;;1.29;99.15;101101.09;5093526;28;20103;-76
2022/12/01 04:10:04;;;;;;;28.92;14.52;;;;;;;1.22;99.18;101092.50;5090926;28;20024;-75
2022/12/01 04:12:31;;;;;;;28.70;14.75;;;;;;;1.22;99.45;101091.63;5093268;28;20028;-75
2022/12/01 04:15:05;;;;;;;26.95;14.95;;;;;;;1.20;99.14;101098.78;5091832;28;20039;-75
2022/12/01 04:17:30;;;;;;;27.33;14.27;;;;;;;1.11;99.17;101084.13;5093368;28;20537;-76
2022/12/01 04:19:56;;;;;;;29.13;14.32;;;;;;;1.05;99.40;101084.34;5094288;28;20126;-68
2022/12/01 04:22:22;;;;;;;27.25;15.23;;;;;;;1.06;99.10;101083.44;5091200;28;20028;-68
2022/12/01 04:24:48;;;;;;;28.40;15.48;;;;;;;1.02;99.11;101081.81;5091305;28;20392;-68
2022/12/01 04:27:13;;;;;;;30.17;14.98;;;;;;;0.91;99.29;101075.22;5091357;28;20047;-69
2022/12/01 04:29:39;;;;;;;31.63;16.38;;;;;;;0.83;99.45;101069.34;5091222;28;20040;-69
2022/12/01 04:32:04;;;;;;;30.98;15.80;;;;;;;0.93;99.80;101089.25;5091034;28;20107;-69
2022/12/01 04:34:30;;;;;;;28.95;14.35;;;;;;;0.84;100.00;101079.84;5090771;28;20028;-68
2022/12/01 04:36:55;;;;;;;29.48;14.75;;;;;;;0.81;100.00;101077.31;5091258;28;20036;-69
2022/12/01 04:39:21;;;;;;;29.38;15.35;;;;;;;0.89;100.00;101091.13;5090552;28;20066;-69
2022/12/01 04:41:46;;;;;;;28.25;15.30;;;;;;;0.84;100.00;101085.13;5090722;28;20032;-69
2022/12/01 04:44:12;;;;;;;28.10;14.57;;;;;;;0.74;100.00;101069.69;5092605;28;20046;-67
2022/12/01 04:46:37;;;;;;;31.02;15.63;;;;;;;0.84;100.00;101090.41;5090672;28;20035;-69
2022/12/01 04:49:03;;;;;;;30.80;15.93;;;;;;;0.76;100.00;101087.19;5092600;28;20517;-69
2022/12/01 04:51:29;;;;;;;30.05;14.85;;;;;;;0.71;100.00;101083.84;5091020;28;20027;-68
2022/12/01 04:53:54;;;;;;;28.83;15.07;;;;;;;0.77;100.00;101093.34;5090888;28;20020;-69
2022/12/01 04:56:20;;;;;;;31.08;15.45;;;;;;;0.72;100.00;101088.22;5090780;28;20061;-69
2022/12/01 04:58:45;;;;;;;31.13;16.15;;;;;;;0.72;100.00;101090.00;5089055;28;20063;-69
2022/12/01 05:01:14;;;;;;;30.98;15.82;;;;;;;0.52;100.00;101060.81;5090225;28;20047;-69
2022/12/01 05:03:42;;;;;;;36.05;19.98;;;;;;;0.63;100.00;101082.41;5106046;28;20055;-69
2022/12/01 05:06:13;;;;;;;30.83;17.15;;;;;;;0.46;100.00;101061.03;5090454;28;20024;-69
2022/12/01 05:08:39;;;;;;;37.53;18.02;;;;;;;0.49;100.00;101067.06;5090142;28;20560;-69
2022/12/01 05:11:06;;;;;;;31.40;16.23;;;;;;;0.57;100.00;101086.13;5088670;28;20036;-69
2022/12/01 05:13:32;;;;;;;38.47;18.13;;;;;;;0.53;100.00;101073.06;5089861;28;20058;-69
2022/12/01 05:16:06;;;;;;;32.28;17.00;;;;;;;0.59;100.00;101081.66;5089043;28;20040;-68
2022/12/01 05:18:31;;;;;;;37.97;18.73;;;;;;;0.38;100.00;101037.53;5088579;28;20028;-69
2022/12/01 05:20:57;;;;;;;30.88;16.83;;;;;;;0.61;100.00;101077.16;5089646;28;20081;-69
2022/12/01 05:23:27;;;;;;;32.13;16.35;;;;;;;0.66;100.00;101080.53;5090090;28;20038;-69
2022/12/01 05:25:53;;;;;;;29.48;15.90;;;;;;;0.56;100.00;101060.66;5088347;28;20034;-69
2022/12/01 05:28:21;;;;;;;34.42;16.92;;;;;;;0.62;100.00;101057.81;5089615;28;20106;-69
2022/12/01 05:30:48;;;;;;;31.05;16.25;;;;;;;0.68;100.00;101070.75;5082279;28;20464;-69
2022/12/01 05:33:13;;;;;;;31.50;15.48;;;;;;;0.71;100.00;101073.28;5088453;28;20487;-69
2022/12/01 05:35:39;;;;;;;30.50;16.10;;;;;;;0.46;100.00;101040.78;5089227;28;20052;-69
2022/12/01 05:38:05;;;;;;;31.23;16.13;;;;;;;0.58;100.00;101050.03;5089255;28;20082;-69
2022/12/01 05:40:30;;;;;;;33.95;17.15;;;;;;;0.68;100.00;101073.38;5088428;28;20044;-68
2022/12/01 05:42:57;;;;;;;30.20;16.27;;;;;;;0.72;100.00;101072.38;5088514;28;20032;-68
2022/12/01 05:45:23;;;;;;;35.20;17.08;;;;;;;0.59;100.00;101052.63;5090631;28;20094;-69
2022/12/01 05:47:48;;;;;;;31.33;16.20;;;;;;;0.55;100.00;101037.78;5089322;28;20172;-68
2022/12/01 05:50:14;;;;;;;32.25;16.38;;;;;;;0.72;100.00;101075.03;5086766;28;20016;-69
2022/12/01 05:52:39;;;;;;;30.83;14.98;;;;;;;0.71;100.00;101065.38;5089065;28;20032;-70
2022/12/01 05:55:06;;;;;;;29.83;14.88;;;;;;;0.79;100.00;101079.16;5089946;28;20110;-69
2022/12/01 05:57:32;;;;;;;30.00;16.25;;;;;;;0.70;100.00;101058.38;5088117;28;20031;-68
2022/12/01 05:59:59;;;;;;;28.17;15.23;;;;;;;0.64;100.00;101044.56;5090796;28;20027;-75
2022/12/01 06:02:25;;;;;;;33.03;16.83;;;;;;;0.79;100.00;101071.25;5089487;28;20065;-75
2022/12/01 06:04:52;;;;;;;33.55;17.00;;;;;;;0.68;100.00;101049.63;5090547;28;20032;-75
2022/12/01 06:07:18;;;;;;;35.22;17.45;;;;;;;0.80;100.00;101075.59;5090669;28;20035;-75
2022/12/01 06:09:45;;;;;;;33.53;18.05;;;;;;;0.81;100.00;101073.84;5089749;28;20084;-76
2022/12/01 06:12:11;;;;;;;34.20;17.95;;;;;;;0.85;100.00;101080.72;5087382;28;20027;-68
2022/12/01 06:14:37;;;;;;;39.95;20.15;;;;;;;0.76;100.00;101065.19;5089589;28;20373;-76
2022/12/01 06:17:02;;;;;;;31.50;17.67;;;;;;;0.75;100.00;101067.00;5089647;28;20035;-75
2022/12/01 06:19:28;;;;;;;39.30;19.30;;;;;;;0.85;100.00;101080.72;5089918;28;20097;-75
2022/12/01 06:21:53;;;;;;;35.22;18.20;;;;;;;0.81;100.00;101077.31;5088970;28;20031;-75
2022/12/01 06:24:19;;;;;;;34.30;19.92;;;;;;;0.82;100.00;101080.81;5089733;28;20522;-74
2022/12/01 06:26:44;;;;;;;35.53;18.10;;;;;;;0.84;100.00;101084.28;5090145;28;20020;-76
2022/12/01 06:29:09;;;;;;;37.80;19.15;;;;;;;0.89;100.00;101100.81;5090222;28;20039;-74
2022/12/01 06:31:36;;;;;;;39.80;20.52;;;;;;;0.80;100.00;101087.97;5087446;28;20448;-75
2022/12/01 06:34:01;;;;;;;40.22;19.13;;;;;;;0.89;100.00;101096.41;5102756;28;20062;-76
2022/12/01 06:36:27;;;;;;;39.33;20.08;;;;;;;0.87;100.00;101100.03;5089990;28;20059;-75
2022/12/01 06:38:52;;;;;;;38.10;19.58;;;;;;;0.87;100.00;101095.56;5090315;28;20047;-75
2022/12/01 06:41:18;;;;;;;45.25;20.35;;;;;;;0.84;100.00;101086.94;5088625;28;20067;-75
2022/12/01 06:43:44;;;;;;;39.63;20.42;;;;;;;0.90;100.00;101097.28;5090047;28;20043;-76
2022/12/01 06:46:15;;;;;;;41.50;20.00;;;;;;;0.76;100.00;101074.00;5090289;28;20396;-76
2022/12/01 06:48:41;;;;;;;47.47;20.92;;;;;;;0.88;100.00;101099.97;5088311;28;20539;-76
2022/12/01 06:51:06;;;;;;;39.10;20.02;;;;;;;0.76;100.00;101073.13;5088734;28;20114;-75
2022/12/01 06:53:32;;;;;;;38.88;19.42;;;;;;;0.94;100.00;101102.38;5089558;28;20548;-75
2022/12/01 06:56:02;;;;;;;37.47;18.58;;;;;;;0.95;100.00;101106.75;5089943;28;20020;-75
2022/12/01 06:58:27;;;;;;;37.75;18.75;;;;;;;1.01;100.00;101106.53;5090069;28;20032;-75
2022/12/01 07:00:53;;;;;;;40.92;20.35;;;;;;;0.99;100.00;101097.78;5091978;28;20024;-76
2022/12/01 07:03:18;;;;;;;43.58;22.27;;;;;;;1.01;100.00;101095.09;5089892;28;20028;-76
2022/12/01 07:05:43;;;;;;;47.70;22.67;;;;;;;1.04;100.00;101092.34;5089934;28;20043;-76
2022/12/01 07:08:09;;;;;;;42.40;22.40;;;;;;;0.96;100.00;101078.53;5089491;28;20032;-76
2022/12/01 07:10:34;;;;;;;38.95;19.88;;;;;;;1.09;100.00;101093.88;5089515;28;20055;-76
2022/12/01 07:13:00;;;;;;;44.83;20.92;;;;;;;1.09;100.00;101093.88;5089704;28;20329;-74
2022/12/01 07:15:27;;;;;;;41.33;20.85;;;;;;;1.17;100.00;101098.88;5089592;28;20035;-75
2022/12/01 07:17:52;;;;;;;40.20;21.85;;;;;;;0.98;100.00;101069.66;5088552;28;20031;-75
2022/12/01 07:20:18;;;;;;;38.38;20.73;;;;;;;1.09;100.00;101093.00;5087135;28;20028;-74
2022/12/01 07:22:43;;;;;;;40.00;19.85;;;;;;;1.22;100.00;101111.00;5091912;28;20099;-75
2022/12/01 07:25:09;;;;;;;39.30;20.63;;;;;;;1.20;100.00;101109.34;5092933;28;20024;-75
2022/12/01 07:27:34;;;;;;;43.65;21.75;;;;;;;1.25;100.00;101102.09;5093181;28;20089;-75
2022/12/01 07:30:00;;;;;;;41.65;22.33;;;;;;;1.19;100.00;101087.34;5091381;28;20028;-75
2022/12/01 07:32:25;;;;;;;41.80;22.83;;;;;;;1.35;100.00;101109.63;5093339;28;20040;-74
2022/12/01 07:34:51;;;;;;;41.40;23.10;;;;;;;1.36;100.00;101111.34;5090160;28;20479;-69
2022/12/01 07:37:16;;;;;;;44.72;21.80;;;;;;;1.39;100.00;101110.38;5090033;28;20028;-69
2022/12/01 07:39:41;;;;;;;42.63;22.50;;;;;;;1.41;100.00;101114.69;5091247;28;20050;-68
2022/12/01 07:42:07;;;;;;;44.72;22.13;;;;;;;1.48;100.00;101132.03;5091849;28;20029;-69
2022/12/01 07:44:32;;;;;;;40.92;21.00;;;;;;;1.53;100.00;101123.94;5091017;28;20020;-69
2022/12/01 07:46:58;;;;;;;37.88;20.63;;;;;;;1.64;100.00;101129.66;5089907;28;20031;-69
2022/12/01 07:49:23;;;;;;;39.40;21.38;;;;;;;1.55;100.00;101122.09;5091542;28;20032;-69
2022/12/01 07:51:49;;;;;;;34.28;18.63;;;;;;;1.68;100.00;101128.63;5088966;28;20077;-69
2022/12/01 07:54:15;;;;;;;36.83;19.50;;;;;;;1.57;100.00;101107.91;5089968;28;20028;-68
2022/12/01 07:56:41;;;;;;;35.97;19.35;;;;;;;1.57;100.00;101099.97;5088375;28;20027;-69
2022/12/01 07:59:07;;;;;;;33.50;19.20;;;;;;;1.83;99.91;101123.59;5090413;28;20046;-70
2022/12/01 08:01:32;;;;;;;33.63;17.65;;;;;;;1.67;99.94;101089.88;5091258;28;20024;-69
2022/12/01 08:03:58;;;;;;;34.00;18.92;;;;;;;1.71;99.54;101096.78;5089742;28;20029;-69
2022/12/01 08:06:25;;;;;;;32.75;19.25;;;;;;;1.90;99.54;101119.78;5090696;28;20103;-70
2022/12/01 08:08:51;;;;;;;34.92;19.75;;;;;;;1.93;100.00;101130.25;5090782;28;20092;-68
2022/12/01 08:11:18;;;;;;;35.55;19.40;;;;;;;1.97;99.27;101123.06;5091145;28;20032;-69
2022/12/01 08:13:43;;;;;;;36.03;18.90;;;;;;;1.85;99.35;101095.31;5093167;28;20028;-69
2022/12/01 08:16:11;;;;;;;32.53;18.00;;;;;;;2.06;99.17;101118.25;5090614;28;20024;-69
2022/12/01 08:18:39;;;;;;;34.00;18.10;;;;;;;1.74;98.88;101059.66;5090645;28;20031;-68
2022/12/01 08:21:06;;;;;;;32.83;18.15;;;;;;;2.00;98.51;101096.50;5090447;28;20036;-68
2022/12/01 08:23:32;;;;;;;35.55;18.85;;;;;;;2.17;98.09;101126.59;5090446;28;20043;-68
2022/12/01 08:26:02;;;;;;;33.03;17.40;;;;;;;1.97;98.09;101081.59;5089504;28;20019;-69
2022/12/01 08:28:27;;;;;;;30.13;16.73;;;;;;;2.30;98.28;101129.63;5091174;28;20044;-69
2022/12/01 08:30:53;;;;;;;31.92;18.10;;;;;;;2.36;98.27;101132.88;5091121;28;20065;-69
2022/12/01 08:33:19;;;;;;;34.85;17.55;;;;;;;2.33;97.44;101114.47;5091596;28;20032;-69
2022/12/01 08:35:44;;;;;;;32.83;16.75;;;;;;;2.51;97.13;101133.19;5088969;28;20028;-69
2022/12/01 08:38:10;;;;;;;31.58;17.65;;;;;;;2.57;97.25;101136.41;5091104;28;20032;-69
2022/12/01 08:40:35;;;;;;;30.23;17.17;;;;;;;2.55;96.90;101126.81;5090620;28;20101;-69
2022/12/01 08:43:01;;;;;;;36.65;18.05;;;;;;;2.64;96.78;101129.09;5089787;28;20072;-69
2022/12/01 08:45:26;;;;;;;31.23;16.23;;;;;;;2.74;96.70;101131.25;5090853;28;20548;-69
2022/12/01 08:47:57;;;;;;;28.08;14.98;;;;;;;2.63;96.07;101108.81;5090634;28;20676;-69
2022/12/01 08:50:26;;;;;;;26.67;15.43;;;;;;;2.79;95.67;101125.75;5090965;28;20146;-67
2022/12/01 08:52:52;;;;;;;26.13;14.35;;;;;;;2.93;95.37;101132.19;5090831;28;20035;-70
2022/12/01 08:55:18;;;;;;;28.40;14.80;;;;;;;2.93;95.81;101134.00;5092451;28;20024;-75
2022/12/01 08:57:43;;;;;;;24.55;14.25;;;;;;;2.91;95.93;101120.81;5092686;28;20058;-75
2022/12/01 09:00:10;;;;;;;26.25;15.40;;;;;;;2.94;95.33;101122.44;5092600;28;20103;-75
2022/12/01 09:02:35;;;;;;;26.92;14.93;;;;;;;3.09;94.73;101140.34;5092388;28;20043;-75
2022/12/01 09:05:00;;;;;;;23.02;14.15;;;;;;;3.15;95.20;101132.97;5092382;28;20027;-74
2022/12/01 09:07:26;;;;;;;26.90;14.82;;;;;;;3.08;94.74;101105.00;5092280;28;20396;-74
2022/12/01 09:09:51;;;;;;;29.75;14.98;;;;;;;3.12;94.69;101106.59;5092607;28;20031;-74
2022/12/01 09:12:17;;;;;;;30.63;16.33;;;;;;;3.27;94.50;101127.13;5091856;28;20016;-75
2022/12/01 09:14:48;;;;;;;27.50;15.13;;;;;;;3.34;94.55;101128.56;5091642;28;20036;-75
2022/12/01 09:17:15;;;;;;;25.92;14.88;;;;;;;3.44;93.01;101119.25;5090702;28;20032;-75
2022/12/01 09:19:41;;;;;;;26.25;15.55;;;;;;;3.44;93.23;101123.69;5092053;28;20051;-75
2022/12/01 09:22:07;;;;;;;25.08;14.98;;;;;;;3.47;93.27;101124.41;5091834;28;20088;-75
2022/12/01 09:24:32;;;;;;;26.75;14.95;;;;;;;3.48;92.85;101117.34;5091409;28;20028;-75
2022/12/01 09:26:59;;;;;;;25.52;15.35;;;;;;;3.40;92.64;101111.50;5091914;28;20023;-75
2022/12/01 09:29:25;;;;;;;26.60;15.20;;;;;;;3.53;92.64;101118.84;5092039;28;20028;-75
2022/12/01 09:31:55;;;;;;;30.05;16.60;;;;;;;3.55;92.51;101118.75;5091185;28;20023;-75
2022/12/01 09:34:20;;;;;;;28.17;15.48;;;;;;;3.56;92.51;101113.38;5107442;28;20032;-75
2022/12/01 09:36:46;;;;;;;23.90;15.02;;;;;;;3.66;92.02;101119.97;5091769;28;20043;-75
2022/12/01 09:39:19;;;;;;;29.00;15.63;;;;;;;3.54;91.61;101077.25;5091282;28;20026;-74
2022/12/01 09:41:55;;;;;;;27.88;15.32;;;;;;;3.86;90.93;101111.06;5089762;28;20048;-75
2022/12/01 09:44:50;;;;;;;27.08;14.98;;;;;;;3.98;90.14;101107.84;5091104;28;20020;-75
2022/12/01 09:47:17;;;;;;;;;;;;;;;4.06;90.01;101110.97;5090732;28;20043;-75
2022/12/01 09:50:05;;;;;;;24.45;14.80;;;;;;;4.08;88.81;101079.91;5091475;28;19912;-75
2022/12/01 09:52:41;;;;;;;25.48;14.70;;;;;;;4.29;87.33;101094.78;5090202;28;20027;-75
2022/12/01 09:55:12;;;;;;;28.52;16.15;;;;;;;4.26;86.95;101082.50;5090169;28;20063;-75
2022/12/01 09:57:39;;;;;;;29.10;17.38;;;;;;;4.22;87.49;101066.81;5089485;28;20043;-75
2022/12/01 10:00:07;;;;;;;29.55;16.30;;;;;;;4.34;87.89;101082.13;5088744;28;20024;-69
2022/12/01 10:03:11;;;;;;;27.83;15.70;;;;;;;4.33;87.51;101080.41;5089870;28;20408;-69
2022/12/01 10:05:46;;;;;;;23.17;14.98;;;;;;;4.38;87.68;101067.75;5058692;28;20094;-70
2022/12/01 10:08:15;;;;;;;25.48;14.60;;;;;;;4.30;87.90;101059.31;5089535;28;20036;-70
2022/12/01 10:10:46;;;;;;;30.48;15.20;;;;;;;4.30;88.40;101057.53;5089289;28;20031;-70
2022/12/01 10:13:27;;;;;;;25.40;15.30;;;;;;;4.32;88.00;101068.09;5087789;28;20031;-69
2022/12/01 10:15:52;;;;;;;25.15;15.25;;;;;;;4.32;88.54;101065.44;5087931;28;20024;-70
2022/12/01 10:18:46;;;;;;;29.35;16.17;;;;;;;4.33;88.85;101064.47;5089456;28;20038;-70
2022/12/01 10:21:36;;;;;;;27.60;16.52;;;;;;;4.38;89.37;101060.66;5087674;28;20036;-69
2022/12/01 10:24:12;;;;;;;26.63;15.90;;;;;;;4.37;88.61;101066.03;5090362;28;20678;-69
2022/12/01 10:26:56;;;;;;;22.13;14.38;;;;;;;4.42;88.11;101061.38;5091455;28;20541;-70
2022/12/01 10:29:47;;;;;;;23.77;14.85;;;;;;;4.43;88.49;101055.97;5087971;28;20031;-70
2022/12/01 10:32:25;;;;;;;25.23;15.27;;;;;;;4.46;88.43;101054.97;5091341;28;20117;-69
2022/12/01 10:34:51;;;;;;;23.92;15.02;;;;;;;4.48;88.58;101047.75;5089351;28;20032;-70
2022/12/01 10:37:23;;;;;;;25.55;15.30;;;;;;;4.48;88.76;101040.66;5090841;28;20055;-69
2022/12/01 10:39:51;;;;;;;23.48;14.85;;;;;;;4.51;88.78;101035.19;5081740;28;20040;-70
2022/12/01 10:42:47;;;;;;;27.42;15.85;;;;;;;4.65;89.01;101047.75;5085790;28;20047;-70
2022/12/01 10:45:17;;;;;;;25.45;15.18;;;;;;;4.57;87.83;101023.38;5087033;28;20031;-69
2022/12/01 10:48:15;;;;;;;26.20;15.07;;;;;;;4.71;88.21;101047.44;5088428;28;20028;-69
2022/12/01 10:50:46;;;;;;;24.25;15.38;;;;;;;4.71;87.60;101047.44;5088739;28;20372;-70
2022/12/01 10:53:35;;;;;;;25.85;15.65;;;;;;;4.71;87.18;101045.63;5088425;28;20071;-69
2022/12/01 10:56:03;;;;;;;27.45;15.38;;;;;;;4.75;87.68;101047.19;5086525;28;20024;-69
2022/12/01 10:58:32;;;;;;;23.90;15.18;;;;;;;4.77;88.08;101048.94;5091574;28;20383;-69
2022/12/01 11:01:02;;;;;;;27.15;15.65;;;;;;;4.81;87.37;101051.34;5092225;28;20039;-70
2022/12/01 11:03:31;;;;;;;24.45;15.13;;;;;;;4.75;87.49;101025.09;5108148;28;20032;-70
2022/12/01 11:05:59;;;;;;;26.48;16.08;;;;;;;4.86;87.34;101043.97;5091141;28;20371;-69
2022/12/01 11:08:39;;;;;;;24.95;15.98;;;;;;;4.73;85.95;100995.94;5091173;28;20078;-70
2022/12/01 11:11:13;;;;;;;25.42;16.05;;;;;;;4.83;86.74;101014.91;5090935;28;20020;-70
2022/12/01 11:13:40;;;;;;;;;;;;;;;4.88;85.68;101030.59;5092926;28;20464;-70
2022/12/01 11:16:26;;;;;;;23.55;14.55;;;;;;;4.87;85.92;101028.88;5091986;28;19947;-69
2022/12/01 11:19:07;;;;;;;29.85;16.05;;;;;;;4.87;85.92;101036.88;5092165;28;20337;-70
2022/12/01 11:21:33;;;;;;;26.00;15.55;;;;;;;4.74;86.04;101016.25;5092236;28;20031;-69
2022/12/01 11:23:58;;;;;;;25.25;14.93;;;;;;;4.88;86.56;101025.28;5092096;28;20032;-69
2022/12/01 11:26:27;;;;;;;24.67;14.77;;;;;;;4.92;86.46;101030.34;5090584;28;20031;-70
2022/12/01 11:28:56;;;;;;;27.70;16.15;;;;;;;4.96;87.00;101031.06;5092246;28;20051;-69